sensor_id;sensor_type;location;lat;lon;timestamp;P1;durP1;ratioP1;P2;durP2;ratioP2
22138;SDS011;25815;52.582;13.408;2023-02-15T00:01:30;35.80;;;19.30;;
22138;SDS011;25815;52.582;13.408;2023-02-15T00:03:56;38.20;;;20.42;;
22138;SDS011;25815;52.582;13.408;2023-02-15T00:06:22;37.30;;;19.17;;
22138;SDS011;25815;52.582;13.408;2023-02-15T00:08:48;33.92;;;18.83;;
22138;SDS011;25815;52.582;13.408;2023-02-15T00:11:16;36.90;;;20.17;;
22138;SDS011;25815;52.582;13.408;2023-02-15T00:14:04;35.33;;;19.50;;
22138;SDS011;25815;52.582;13.408;2023-02-15T00:16:30;36.38;;;20.13;;
22138;SDS011;25815;52.582;13.408;2023-02-15T00:18:56;35.90;;;20.08;;
22138;SDS011;25815;52.582;13.408;2023-02-15T00:21:21;41.35;;;20.55;;
22138;SDS011;25815;52.582;13.408;2023-02-15T00:23:47;43.65;;;21.30;;
22138;SDS011;25815;52.582;13.408;2023-02-15T00:26:13;38.60;;;20.48;;
22138;SDS011;25815;52.582;13.408;2023-02-15T00:28:39;39.58;;;20.58;;
22138;SDS011;25815;52.582;13.408;2023-02-15T00:31:06;39.53;;;20.92;;
22138;SDS011;25815;52.582;13.408;2023-02-15T00:33:32;36.47;;;20.42;;
22138;SDS011;25815;52.582;13.408;2023-02-15T00:35:58;40.35;;;21.88;;
22138;SDS011;25815;52.582;13.408;2023-02-15T00:38:26;37.88;;;20.10;;
22138;SDS011;25815;52.582;13.408;2023-02-15T00:40:53;36.90;;;20.73;;
22138;SDS011;25815;52.582;13.408;2023-02-15T00:43:19;39.25;;;20.85;;
22138;SDS011;25815;52.582;13.408;2023-02-15T00:45:45;39.42;;;21.30;;
22138;SDS011;25815;52.582;13.408;2023-02-15T00:48:11;41.67;;;22.10;;
22138;SDS011;25815;52.582;13.408;2023-02-15T00:50:37;39.75;;;21.33;;
22138;SDS011;25815;52.582;13.408;2023-02-15T00:53:03;39.80;;;20.45;;
22138;SDS011;25815;52.582;13.408;2023-02-15T00:55:29;40.40;;;21.73;;
22138;SDS011;25815;52.582;13.408;2023-02-15T00:57:55;35.08;;;20.38;;
22138;SDS011;25815;52.582;13.408;2023-02-15T01:00:21;41.83;;;21.05;;
22138;SDS011;25815;52.582;13.408;2023-02-15T01:02:47;40.72;;;21.83;;
22138;SDS011;25815;52.582;13.408;2023-02-15T01:05:13;40.72;;;21.80;;
22138;SDS011;25815;52.582;13.408;2023-02-15T01:07:39;42.90;;;22.27;;
22138;SDS011;25815;52.582;13.408;2023-02-15T01:10:05;37.88;;;21.13;;
22138;SDS011;25815;52.582;13.408;2023-02-15T01:12:32;41.03;;;21.48;;
22138;SDS011;25815;52.582;13.408;2023-02-15T01:14:58;35.10;;;19.70;;
22138;SDS011;25815;52.582;13.408;2023-02-15T01:17:23;42.22;;;21.83;;
22138;SDS011;25815;52.582;13.408;2023-02-15T01:19:49;40.45;;;20.88;;
22138;SDS011;25815;52.582;13.408;2023-02-15T01:22:16;40.88;;;21.40;;
22138;SDS011;25815;52.582;13.408;2023-02-15T01:24:42;40.33;;;20.58;;
22138;SDS011;25815;52.582;13.408;2023-02-15T01:27:08;42.03;;;21.73;;
22138;SDS011;25815;52.582;13.408;2023-02-15T01:29:34;42.78;;;22.92;;
22138;SDS011;25815;52.582;13.408;2023-02-15T01:32:00;43.03;;;21.42;;
22138;SDS011;25815;52.582;13.408;2023-02-15T01:34:26;43.42;;;21.92;;
22138;SDS011;25815;52.582;13.408;2023-02-15T01:36:52;43.72;;;22.83;;
22138;SDS011;25815;52.582;13.408;2023-02-15T01:39:17;45.28;;;22.90;;
22138;SDS011;25815;52.582;13.408;2023-02-15T01:41:43;40.88;;;22.50;;
22138;SDS011;25815;52.582;13.408;2023-02-15T01:46:54;45.15;;;22.00;;
22138;SDS011;25815;52.582;13.408;2023-02-15T01:49:20;45.20;;;22.58;;
22138;SDS011;25815;52.582;13.408;2023-02-15T01:51:48;42.65;;;22.05;;
22138;SDS011;25815;52.582;13.408;2023-02-15T01:54:19;42.30;;;22.33;;
22138;SDS011;25815;52.582;13.408;2023-02-15T01:56:49;42.83;;;22.85;;
22138;SDS011;25815;52.582;13.408;2023-02-15T01:59:16;45.30;;;22.35;;
22138;SDS011;25815;52.582;13.408;2023-02-15T02:01:45;46.10;;;22.52;;
22138;SDS011;25815;52.582;13.408;2023-02-15T02:07:03;41.30;;;21.50;;
22138;SDS011;25815;52.582;13.408;2023-02-15T02:09:30;46.15;;;22.80;;
22138;SDS011;25815;52.582;13.408;2023-02-15T02:11:55;46.65;;;23.77;;
22138;SDS011;25815;52.582;13.408;2023-02-15T02:14:22;43.30;;;21.38;;
22138;SDS011;25815;52.582;13.408;2023-02-15T02:16:52;41.45;;;21.58;;
22138;SDS011;25815;52.582;13.408;2023-02-15T02:22:18;41.25;;;22.45;;
22138;SDS011;25815;52.582;13.408;2023-02-15T02:35:36;48.00;;;23.42;;
22138;SDS011;25815;52.582;13.408;2023-02-15T02:38:11;44.90;;;23.67;;
22138;SDS011;25815;52.582;13.408;2023-02-15T02:43:33;44.50;;;22.83;;
22138;SDS011;25815;52.582;13.408;2023-02-15T02:46:02;46.20;;;22.65;;
22138;SDS011;25815;52.582;13.408;2023-02-15T02:48:32;47.10;;;23.90;;
22138;SDS011;25815;52.582;13.408;2023-02-15T02:50:58;47.15;;;23.67;;
22138;SDS011;25815;52.582;13.408;2023-02-15T02:53:23;45.80;;;22.10;;
22138;SDS011;25815;52.582;13.408;2023-02-15T02:55:51;46.22;;;24.25;;
22138;SDS011;25815;52.582;13.408;2023-02-15T02:58:20;46.67;;;24.27;;
22138;SDS011;25815;52.582;13.408;2023-02-15T03:00:59;45.80;;;22.85;;
22138;SDS011;25815;52.582;13.408;2023-02-15T03:03:32;46.58;;;23.23;;
22138;SDS011;25815;52.582;13.408;2023-02-15T03:06:01;45.30;;;22.90;;
22138;SDS011;25815;52.582;13.408;2023-02-15T03:08:36;44.80;;;23.48;;
22138;SDS011;25815;52.582;13.408;2023-02-15T03:11:03;46.75;;;23.67;;
22138;SDS011;25815;52.582;13.408;2023-02-15T03:13:29;44.90;;;23.25;;
22138;SDS011;25815;52.582;13.408;2023-02-15T03:15:55;46.58;;;23.52;;
22138;SDS011;25815;52.582;13.408;2023-02-15T03:18:43;48.63;;;23.27;;
22138;SDS011;25815;52.582;13.408;2023-02-15T03:21:17;43.80;;;22.85;;
22138;SDS011;25815;52.582;13.408;2023-02-15T03:23:48;47.08;;;24.48;;
22138;SDS011;25815;52.582;13.408;2023-02-15T03:26:15;45.97;;;23.17;;
22138;SDS011;25815;52.582;13.408;2023-02-15T03:28:42;53.80;;;26.00;;
22138;SDS011;25815;52.582;13.408;2023-02-15T03:31:08;51.58;;;24.90;;
22138;SDS011;25815;52.582;13.408;2023-02-15T03:33:35;47.20;;;23.65;;
22138;SDS011;25815;52.582;13.408;2023-02-15T03:36:04;49.60;;;24.65;;
22138;SDS011;25815;52.582;13.408;2023-02-15T03:38:36;53.03;;;25.30;;
22138;SDS011;25815;52.582;13.408;2023-02-15T03:41:05;52.55;;;26.33;;
22138;SDS011;25815;52.582;13.408;2023-02-15T03:46:05;56.63;;;24.90;;
22138;SDS011;25815;52.582;13.408;2023-02-15T03:48:34;52.97;;;25.70;;
22138;SDS011;25815;52.582;13.408;2023-02-15T03:51:02;58.13;;;26.65;;
22138;SDS011;25815;52.582;13.408;2023-02-15T03:53:49;53.47;;;26.33;;
22138;SDS011;25815;52.582;13.408;2023-02-15T03:56:16;57.35;;;26.42;;
22138;SDS011;25815;52.582;13.408;2023-02-15T03:58:41;52.05;;;25.83;;
22138;SDS011;25815;52.582;13.408;2023-02-15T04:06:53;53.90;;;26.10;;
22138;SDS011;25815;52.582;13.408;2023-02-15T04:09:19;50.30;;;26.20;;
22138;SDS011;25815;52.582;13.408;2023-02-15T04:12:04;55.85;;;26.48;;
22138;SDS011;25815;52.582;13.408;2023-02-15T04:14:30;54.08;;;26.30;;
22138;SDS011;25815;52.582;13.408;2023-02-15T04:17:14;63.80;;;27.60;;
22138;SDS011;25815;52.582;13.408;2023-02-15T04:19:40;60.97;;;27.20;;
22138;SDS011;25815;52.582;13.408;2023-02-15T04:22:24;67.13;;;29.40;;
22138;SDS011;25815;52.582;13.408;2023-02-15T04:25:09;64.47;;;28.15;;
22138;SDS011;25815;52.582;13.408;2023-02-15T04:27:39;68.80;;;28.77;;
22138;SDS011;25815;52.582;13.408;2023-02-15T04:30:05;60.95;;;27.35;;
22138;SDS011;25815;52.582;13.408;2023-02-15T04:32:31;60.95;;;28.48;;
22138;SDS011;25815;52.582;13.408;2023-02-15T04:34:57;62.97;;;28.77;;
22138;SDS011;25815;52.582;13.408;2023-02-15T04:37:23;61.78;;;28.25;;
22138;SDS011;25815;52.582;13.408;2023-02-15T04:39:49;65.50;;;28.77;;
22138;SDS011;25815;52.582;13.408;2023-02-15T04:42:15;66.90;;;29.38;;
22138;SDS011;25815;52.582;13.408;2023-02-15T04:44:41;72.80;;;28.45;;
22138;SDS011;25815;52.582;13.408;2023-02-15T04:47:07;66.93;;;28.65;;
22138;SDS011;25815;52.582;13.408;2023-02-15T04:49:33;62.00;;;26.85;;
22138;SDS011;25815;52.582;13.408;2023-02-15T04:51:59;63.53;;;28.25;;
22138;SDS011;25815;52.582;13.408;2023-02-15T04:54:25;63.53;;;28.75;;
22138;SDS011;25815;52.582;13.408;2023-02-15T04:56:51;62.45;;;27.98;;
22138;SDS011;25815;52.582;13.408;2023-02-15T04:59:17;67.75;;;28.83;;
22138;SDS011;25815;52.582;13.408;2023-02-15T05:01:43;71.57;;;30.25;;
22138;SDS011;25815;52.582;13.408;2023-02-15T05:04:09;64.00;;;28.52;;
22138;SDS011;25815;52.582;13.408;2023-02-15T05:06:35;68.55;;;29.17;;
22138;SDS011;25815;52.582;13.408;2023-02-15T05:09:01;67.40;;;30.35;;
22138;SDS011;25815;52.582;13.408;2023-02-15T05:11:27;64.65;;;29.05;;
22138;SDS011;25815;52.582;13.408;2023-02-15T05:13:53;78.07;;;30.10;;
22138;SDS011;25815;52.582;13.408;2023-02-15T05:16:19;62.60;;;28.85;;
22138;SDS011;25815;52.582;13.408;2023-02-15T05:18:45;66.38;;;30.38;;
22138;SDS011;25815;52.582;13.408;2023-02-15T05:21:11;59.35;;;28.13;;
22138;SDS011;25815;52.582;13.408;2023-02-15T05:23:38;62.20;;;28.73;;
22138;SDS011;25815;52.582;13.408;2023-02-15T05:26:04;61.63;;;27.35;;
22138;SDS011;25815;52.582;13.408;2023-02-15T05:28:49;58.40;;;27.98;;
22138;SDS011;25815;52.582;13.408;2023-02-15T05:31:16;61.25;;;28.30;;
22138;SDS011;25815;52.582;13.408;2023-02-15T05:33:42;62.35;;;28.40;;
22138;SDS011;25815;52.582;13.408;2023-02-15T05:36:09;61.72;;;28.38;;
22138;SDS011;25815;52.582;13.408;2023-02-15T05:38:35;64.13;;;28.48;;
22138;SDS011;25815;52.582;13.408;2023-02-15T05:41:04;57.47;;;26.77;;
22138;SDS011;25815;52.582;13.408;2023-02-15T05:43:30;65.72;;;28.80;;
22138;SDS011;25815;52.582;13.408;2023-02-15T05:45:56;61.13;;;26.63;;
22138;SDS011;25815;52.582;13.408;2023-02-15T05:48:24;63.15;;;28.40;;
22138;SDS011;25815;52.582;13.408;2023-02-15T05:51:00;61.95;;;27.05;;
22138;SDS011;25815;52.582;13.408;2023-02-15T05:53:27;57.67;;;27.10;;
22138;SDS011;25815;52.582;13.408;2023-02-15T05:55:53;60.35;;;27.50;;
22138;SDS011;25815;52.582;13.408;2023-02-15T05:58:23;61.30;;;26.77;;
22138;SDS011;25815;52.582;13.408;2023-02-15T06:00:49;62.45;;;26.95;;
22138;SDS011;25815;52.582;13.408;2023-02-15T06:03:15;70.00;;;30.00;;
22138;SDS011;25815;52.582;13.408;2023-02-15T06:05:41;68.28;;;28.67;;
22138;SDS011;25815;52.582;13.408;2023-02-15T06:08:07;74.10;;;29.83;;
22138;SDS011;25815;52.582;13.408;2023-02-15T06:10:34;69.20;;;29.88;;
22138;SDS011;25815;52.582;13.408;2023-02-15T06:13:00;66.60;;;27.85;;
22138;SDS011;25815;52.582;13.408;2023-02-15T06:15:26;66.93;;;28.65;;
22138;SDS011;25815;52.582;13.408;2023-02-15T06:17:52;72.88;;;29.13;;
22138;SDS011;25815;52.582;13.408;2023-02-15T06:20:18;69.85;;;29.02;;
22138;SDS011;25815;52.582;13.408;2023-02-15T06:22:44;68.00;;;28.27;;
22138;SDS011;25815;52.582;13.408;2023-02-15T06:25:10;68.63;;;27.00;;
22138;SDS011;25815;52.582;13.408;2023-02-15T06:27:36;72.78;;;29.35;;
22138;SDS011;25815;52.582;13.408;2023-02-15T06:30:02;74.95;;;30.35;;
22138;SDS011;25815;52.582;13.408;2023-02-15T06:32:29;79.57;;;30.20;;
22138;SDS011;25815;52.582;13.408;2023-02-15T06:34:54;71.03;;;28.50;;
22138;SDS011;25815;52.582;13.408;2023-02-15T06:37:20;69.80;;;29.20;;
22138;SDS011;25815;52.582;13.408;2023-02-15T06:39:46;67.72;;;28.17;;
22138;SDS011;25815;52.582;13.408;2023-02-15T06:42:12;80.15;;;29.88;;
22138;SDS011;25815;52.582;13.408;2023-02-15T06:44:38;77.93;;;30.33;;
22138;SDS011;25815;52.582;13.408;2023-02-15T06:47:04;75.43;;;29.40;;
22138;SDS011;25815;52.582;13.408;2023-02-15T06:49:30;91.55;;;31.92;;
22138;SDS011;25815;52.582;13.408;2023-02-15T06:51:56;73.03;;;30.08;;
22138;SDS011;25815;52.582;13.408;2023-02-15T06:54:22;78.68;;;30.70;;
22138;SDS011;25815;52.582;13.408;2023-02-15T06:56:47;76.70;;;31.10;;
22138;SDS011;25815;52.582;13.408;2023-02-15T06:59:13;90.43;;;31.83;;
22138;SDS011;25815;52.582;13.408;2023-02-15T07:01:39;81.82;;;31.30;;
22138;SDS011;25815;52.582;13.408;2023-02-15T07:04:05;75.32;;;30.67;;
22138;SDS011;25815;52.582;13.408;2023-02-15T07:06:32;77.97;;;32.03;;
22138;SDS011;25815;52.582;13.408;2023-02-15T07:08:58;84.28;;;32.30;;
22138;SDS011;25815;52.582;13.408;2023-02-15T07:11:24;89.13;;;31.00;;
22138;SDS011;25815;52.582;13.408;2023-02-15T07:14:08;78.90;;;31.80;;
22138;SDS011;25815;52.582;13.408;2023-02-15T07:16:34;82.47;;;32.10;;
22138;SDS011;25815;52.582;13.408;2023-02-15T07:19:00;82.65;;;32.75;;
22138;SDS011;25815;52.582;13.408;2023-02-15T07:21:26;77.45;;;31.40;;
22138;SDS011;25815;52.582;13.408;2023-02-15T07:23:55;83.40;;;32.80;;
22138;SDS011;25815;52.582;13.408;2023-02-15T07:26:21;78.60;;;32.13;;
22138;SDS011;25815;52.582;13.408;2023-02-15T07:28:47;80.20;;;31.35;;
22138;SDS011;25815;52.582;13.408;2023-02-15T07:31:13;80.72;;;31.10;;
22138;SDS011;25815;52.582;13.408;2023-02-15T07:33:39;95.38;;;31.63;;
22138;SDS011;25815;52.582;13.408;2023-02-15T07:36:05;93.78;;;30.77;;
22138;SDS011;25815;52.582;13.408;2023-02-15T07:38:35;78.95;;;30.98;;
22138;SDS011;25815;52.582;13.408;2023-02-15T07:41:02;80.97;;;30.45;;
22138;SDS011;25815;52.582;13.408;2023-02-15T07:43:29;76.18;;;28.88;;
22138;SDS011;25815;52.582;13.408;2023-02-15T07:45:59;72.63;;;29.65;;
22138;SDS011;25815;52.582;13.408;2023-02-15T07:48:25;77.25;;;30.10;;
22138;SDS011;25815;52.582;13.408;2023-02-15T07:50:52;83.78;;;29.50;;
22138;SDS011;25815;52.582;13.408;2023-02-15T07:53:18;72.85;;;27.73;;
22138;SDS011;25815;52.582;13.408;2023-02-15T07:55:43;82.03;;;28.25;;
22138;SDS011;25815;52.582;13.408;2023-02-15T07:58:09;82.22;;;29.30;;
22138;SDS011;25815;52.582;13.408;2023-02-15T08:00:35;79.15;;;29.45;;
22138;SDS011;25815;52.582;13.408;2023-02-15T08:03:24;79.50;;;30.20;;
22138;SDS011;25815;52.582;13.408;2023-02-15T08:05:54;84.57;;;29.73;;
22138;SDS011;25815;52.582;13.408;2023-02-15T08:08:20;78.53;;;31.48;;
22138;SDS011;25815;52.582;13.408;2023-02-15T08:13:46;81.95;;;32.15;;
22138;SDS011;25815;52.582;13.408;2023-02-15T08:16:19;82.95;;;30.58;;
22138;SDS011;25815;52.582;13.408;2023-02-15T08:18:45;78.80;;;30.25;;
22138;SDS011;25815;52.582;13.408;2023-02-15T08:21:11;91.90;;;29.05;;
22138;SDS011;25815;52.582;13.408;2023-02-15T08:23:36;78.22;;;29.38;;
22138;SDS011;25815;52.582;13.408;2023-02-15T08:26:02;106.18;;;31.70;;
22138;SDS011;25815;52.582;13.408;2023-02-15T08:28:29;95.88;;;31.30;;
22138;SDS011;25815;52.582;13.408;2023-02-15T08:30:55;81.45;;;29.13;;
22138;SDS011;25815;52.582;13.408;2023-02-15T08:33:21;88.85;;;32.45;;
22138;SDS011;25815;52.582;13.408;2023-02-15T08:35:47;86.00;;;29.55;;
22138;SDS011;25815;52.582;13.408;2023-02-15T08:38:13;79.07;;;30.65;;
22138;SDS011;25815;52.582;13.408;2023-02-15T08:40:40;89.85;;;32.95;;
22138;SDS011;25815;52.582;13.408;2023-02-15T08:43:06;88.18;;;31.15;;
22138;SDS011;25815;52.582;13.408;2023-02-15T08:45:32;85.63;;;31.10;;
22138;SDS011;25815;52.582;13.408;2023-02-15T08:47:58;79.40;;;30.63;;
22138;SDS011;25815;52.582;13.408;2023-02-15T08:50:23;81.30;;;31.50;;
22138;SDS011;25815;52.582;13.408;2023-02-15T08:52:49;80.50;;;31.80;;
22138;SDS011;25815;52.582;13.408;2023-02-15T08:55:15;82.50;;;30.92;;
22138;SDS011;25815;52.582;13.408;2023-02-15T08:57:41;83.22;;;32.63;;
22138;SDS011;25815;52.582;13.408;2023-02-15T09:00:10;87.60;;;31.60;;
22138;SDS011;25815;52.582;13.408;2023-02-15T09:02:36;79.32;;;31.17;;
22138;SDS011;25815;52.582;13.408;2023-02-15T09:05:02;85.15;;;31.25;;
22138;SDS011;25815;52.582;13.408;2023-02-15T09:07:29;79.97;;;31.80;;
22138;SDS011;25815;52.582;13.408;2023-02-15T09:09:55;80.78;;;31.48;;
22138;SDS011;25815;52.582;13.408;2023-02-15T09:12:20;87.10;;;32.20;;
22138;SDS011;25815;52.582;13.408;2023-02-15T09:14:46;85.50;;;32.63;;
22138;SDS011;25815;52.582;13.408;2023-02-15T09:17:12;84.03;;;32.80;;
22138;SDS011;25815;52.582;13.408;2023-02-15T09:19:38;82.03;;;30.85;;
22138;SDS011;25815;52.582;13.408;2023-02-15T09:22:04;80.38;;;31.08;;
22138;SDS011;25815;52.582;13.408;2023-02-15T09:24:31;88.60;;;32.45;;
22138;SDS011;25815;52.582;13.408;2023-02-15T09:26:58;86.00;;;33.35;;
22138;SDS011;25815;52.582;13.408;2023-02-15T09:29:24;87.60;;;33.58;;
22138;SDS011;25815;52.582;13.408;2023-02-15T09:31:50;75.07;;;31.45;;
22138;SDS011;25815;52.582;13.408;2023-02-15T09:34:19;78.38;;;32.15;;
22138;SDS011;25815;52.582;13.408;2023-02-15T09:36:46;84.55;;;32.22;;
22138;SDS011;25815;52.582;13.408;2023-02-15T09:47:12;78.65;;;30.42;;
22138;SDS011;25815;52.582;13.408;2023-02-15T09:52:24;78.07;;;28.77;;
22138;SDS011;25815;52.582;13.408;2023-02-15T09:55:01;77.50;;;31.35;;
22138;SDS011;25815;52.582;13.408;2023-02-15T09:57:35;66.45;;;29.73;;
22138;SDS011;25815;52.582;13.408;2023-02-15T10:00:07;68.28;;;29.63;;
22138;SDS011;25815;52.582;13.408;2023-02-15T10:02:38;67.68;;;29.38;;
22138;SDS011;25815;52.582;13.408;2023-02-15T10:12:40;64.15;;;28.70;;
22138;SDS011;25815;52.582;13.408;2023-02-15T10:23:09;62.83;;;26.77;;
22138;SDS011;25815;52.582;13.408;2023-02-15T10:25:51;63.53;;;28.42;;
22138;SDS011;25815;52.582;13.408;2023-02-15T10:28:23;60.78;;;27.40;;
22138;SDS011;25815;52.582;13.408;2023-02-15T10:30:53;59.78;;;28.30;;
22138;SDS011;25815;52.582;13.408;2023-02-15T10:38:34;54.50;;;27.30;;
22138;SDS011;25815;52.582;13.408;2023-02-15T10:41:10;59.78;;;27.20;;
22138;SDS011;25815;52.582;13.408;2023-02-15T10:43:41;52.95;;;25.83;;
22138;SDS011;25815;52.582;13.408;2023-02-15T10:48:47;54.40;;;25.95;;
22138;SDS011;25815;52.582;13.408;2023-02-15T11:06:59;48.63;;;23.40;;
22138;SDS011;25815;52.582;13.408;2023-02-15T11:09:30;45.70;;;24.58;;
22138;SDS011;25815;52.582;13.408;2023-02-15T11:11:59;53.00;;;24.08;;
22138;SDS011;25815;52.582;13.408;2023-02-15T11:14:39;46.70;;;24.10;;
22138;SDS011;25815;52.582;13.408;2023-02-15T11:17:12;46.03;;;24.40;;
22138;SDS011;25815;52.582;13.408;2023-02-15T11:19:44;45.40;;;22.90;;
22138;SDS011;25815;52.582;13.408;2023-02-15T11:22:12;45.85;;;22.75;;
22138;SDS011;25815;52.582;13.408;2023-02-15T11:24:40;42.08;;;22.33;;
22138;SDS011;25815;52.582;13.408;2023-02-15T11:29:47;44.65;;;23.55;;
22138;SDS011;25815;52.582;13.408;2023-02-15T11:32:22;38.55;;;21.30;;
22138;SDS011;25815;52.582;13.408;2023-02-15T11:34:50;35.58;;;19.10;;
22138;SDS011;25815;52.582;13.408;2023-02-15T11:37:18;35.08;;;17.77;;
22138;SDS011;25815;52.582;13.408;2023-02-15T11:39:46;34.55;;;18.73;;
22138;SDS011;25815;52.582;13.408;2023-02-15T11:42:17;36.75;;;18.73;;
22138;SDS011;25815;52.582;13.408;2023-02-15T11:45:19;37.53;;;18.35;;
22138;SDS011;25815;52.582;13.408;2023-02-15T11:47:36;32.17;;;17.58;;
22138;SDS011;25815;52.582;13.408;2023-02-15T11:50:02;33.45;;;17.90;;
22138;SDS011;25815;52.582;13.408;2023-02-15T11:52:28;34.47;;;19.23;;
22138;SDS011;25815;52.582;13.408;2023-02-15T11:54:54;33.55;;;18.08;;
22138;SDS011;25815;52.582;13.408;2023-02-15T11:57:26;32.00;;;17.83;;
22138;SDS011;25815;52.582;13.408;2023-02-15T11:59:59;34.65;;;18.10;;
22138;SDS011;25815;52.582;13.408;2023-02-15T12:02:26;31.70;;;17.83;;
22138;SDS011;25815;52.582;13.408;2023-02-15T12:05:09;37.45;;;19.42;;
22138;SDS011;25815;52.582;13.408;2023-02-15T12:07:37;30.52;;;17.02;;
22138;SDS011;25815;52.582;13.408;2023-02-15T12:12:36;34.58;;;19.15;;
22138;SDS011;25815;52.582;13.408;2023-02-15T12:15:12;34.80;;;19.27;;
22138;SDS011;25815;52.582;13.408;2023-02-15T12:17:39;34.20;;;18.92;;
22138;SDS011;25815;52.582;13.408;2023-02-15T12:20:18;33.67;;;18.02;;
22138;SDS011;25815;52.582;13.408;2023-02-15T12:22:48;33.35;;;18.42;;
22138;SDS011;25815;52.582;13.408;2023-02-15T12:25:22;35.53;;;19.38;;
22138;SDS011;25815;52.582;13.408;2023-02-15T12:27:48;37.42;;;19.55;;
22138;SDS011;25815;52.582;13.408;2023-02-15T12:30:23;34.22;;;19.17;;
22138;SDS011;25815;52.582;13.408;2023-02-15T12:35:26;32.67;;;18.20;;
22138;SDS011;25815;52.582;13.408;2023-02-15T12:37:54;32.88;;;18.50;;
22138;SDS011;25815;52.582;13.408;2023-02-15T12:40:24;37.78;;;19.67;;
22138;SDS011;25815;52.582;13.408;2023-02-15T12:42:52;38.67;;;19.25;;
22138;SDS011;25815;52.582;13.408;2023-02-15T12:47:47;36.40;;;18.47;;
22138;SDS011;25815;52.582;13.408;2023-02-15T12:50:33;31.48;;;17.42;;
22138;SDS011;25815;52.582;13.408;2023-02-15T12:55:34;34.10;;;18.20;;
22138;SDS011;25815;52.582;13.408;2023-02-15T13:00:32;32.10;;;17.95;;
22138;SDS011;25815;52.582;13.408;2023-02-15T13:02:59;33.03;;;18.13;;
22138;SDS011;25815;52.582;13.408;2023-02-15T13:05:37;34.30;;;17.95;;
22138;SDS011;25815;52.582;13.408;2023-02-15T13:10:53;36.83;;;18.13;;
22138;SDS011;25815;52.582;13.408;2023-02-15T13:13:20;30.80;;;17.58;;
22138;SDS011;25815;52.582;13.408;2023-02-15T13:15:48;32.33;;;16.65;;
22138;SDS011;25815;52.582;13.408;2023-02-15T13:18:37;30.13;;;17.13;;
22138;SDS011;25815;52.582;13.408;2023-02-15T13:21:23;30.63;;;17.73;;
22138;SDS011;25815;52.582;13.408;2023-02-15T13:23:48;30.50;;;17.20;;
22138;SDS011;25815;52.582;13.408;2023-02-15T13:26:17;31.92;;;18.50;;
22138;SDS011;25815;52.582;13.408;2023-02-15T13:28:45;26.88;;;17.08;;
22138;SDS011;25815;52.582;13.408;2023-02-15T13:31:17;29.02;;;17.05;;
22138;SDS011;25815;52.582;13.408;2023-02-15T13:33:44;29.20;;;17.38;;
22138;SDS011;25815;52.582;13.408;2023-02-15T13:36:15;29.63;;;17.43;;
22138;SDS011;25815;52.582;13.408;2023-02-15T13:47:06;30.30;;;18.52;;
22138;SDS011;25815;52.582;13.408;2023-02-15T13:49:44;29.08;;;16.92;;
22138;SDS011;25815;52.582;13.408;2023-02-15T13:52:17;30.08;;;17.38;;
22138;SDS011;25815;52.582;13.408;2023-02-15T13:55:26;28.20;;;16.65;;
22138;SDS011;25815;52.582;13.408;2023-02-15T14:00:21;30.88;;;18.38;;
22138;SDS011;25815;52.582;13.408;2023-02-15T14:05:28;34.45;;;18.23;;
22138;SDS011;25815;52.582;13.408;2023-02-15T14:10:47;35.53;;;18.05;;
22138;SDS011;25815;52.582;13.408;2023-02-15T14:13:24;35.45;;;18.35;;
22138;SDS011;25815;52.582;13.408;2023-02-15T14:21:32;31.00;;;17.88;;
22138;SDS011;25815;52.582;13.408;2023-02-15T14:24:14;29.55;;;17.75;;
22138;SDS011;25815;52.582;13.408;2023-02-15T14:31:41;31.73;;;16.73;;
22138;SDS011;25815;52.582;13.408;2023-02-15T14:34:19;30.92;;;17.48;;
22138;SDS011;25815;52.582;13.408;2023-02-15T14:36:46;30.33;;;17.08;;
22138;SDS011;25815;52.582;13.408;2023-02-15T14:42:08;28.77;;;17.50;;
22138;SDS011;25815;52.582;13.408;2023-02-15T14:44:57;31.02;;;17.80;;
22138;SDS011;25815;52.582;13.408;2023-02-15T14:47:32;30.25;;;17.35;;
22138;SDS011;25815;52.582;13.408;2023-02-15T14:49:59;30.35;;;16.95;;
22138;SDS011;25815;52.582;13.408;2023-02-15T14:53:14;32.42;;;17.98;;
22138;SDS011;25815;52.582;13.408;2023-02-15T14:55:34;34.20;;;19.27;;
22138;SDS011;25815;52.582;13.408;2023-02-15T14:58:01;34.17;;;18.48;;
22138;SDS011;25815;52.582;13.408;2023-02-15T15:00:34;29.45;;;17.08;;
22138;SDS011;25815;52.582;13.408;2023-02-15T15:03:02;28.33;;;16.10;;
22138;SDS011;25815;52.582;13.408;2023-02-15T15:05:35;30.95;;;16.83;;
22138;SDS011;25815;52.582;13.408;2023-02-15T15:08:21;28.67;;;17.33;;
22138;SDS011;25815;52.582;13.408;2023-02-15T15:10:48;30.58;;;17.27;;
22138;SDS011;25815;52.582;13.408;2023-02-15T15:16:46;28.48;;;17.08;;
22138;SDS011;25815;52.582;13.408;2023-02-15T15:18:49;28.25;;;16.77;;
22138;SDS011;25815;52.582;13.408;2023-02-15T15:24:00;28.45;;;16.58;;
22138;SDS011;25815;52.582;13.408;2023-02-15T15:26:27;29.23;;;16.63;;
22138;SDS011;25815;52.582;13.408;2023-02-15T15:28:55;29.27;;;17.27;;
22138;SDS011;25815;52.582;13.408;2023-02-15T15:31:39;28.77;;;17.00;;
22138;SDS011;25815;52.582;13.408;2023-02-15T15:42:01;32.35;;;16.90;;
22138;SDS011;25815;52.582;13.408;2023-02-15T15:47:05;28.65;;;16.85;;
22138;SDS011;25815;52.582;13.408;2023-02-15T15:49:34;31.67;;;16.63;;
22138;SDS011;25815;52.582;13.408;2023-02-15T15:52:02;30.02;;;16.88;;
22138;SDS011;25815;52.582;13.408;2023-02-15T15:54:28;28.15;;;17.45;;
22138;SDS011;25815;52.582;13.408;2023-02-15T15:57:00;34.90;;;18.42;;
22138;SDS011;25815;52.582;13.408;2023-02-15T15:59:30;27.15;;;16.65;;
22138;SDS011;25815;52.582;13.408;2023-02-15T16:01:56;30.77;;;17.27;;
22138;SDS011;25815;52.582;13.408;2023-02-15T16:04:30;30.88;;;17.73;;
22138;SDS011;25815;52.582;13.408;2023-02-15T16:06:57;28.88;;;16.70;;
22138;SDS011;25815;52.582;13.408;2023-02-15T16:09:24;27.05;;;16.52;;
22138;SDS011;25815;52.582;13.408;2023-02-15T16:11:51;30.40;;;18.00;;
22138;SDS011;25815;52.582;13.408;2023-02-15T16:14:30;29.92;;;16.60;;
22138;SDS011;25815;52.582;13.408;2023-02-15T16:16:58;31.30;;;17.80;;
22138;SDS011;25815;52.582;13.408;2023-02-15T16:19:26;34.20;;;17.20;;
22138;SDS011;25815;52.582;13.408;2023-02-15T16:21:53;29.45;;;17.20;;
22138;SDS011;25815;52.582;13.408;2023-02-15T16:24:31;29.55;;;17.17;;
22138;SDS011;25815;52.582;13.408;2023-02-15T16:29:30;30.50;;;17.00;;
22138;SDS011;25815;52.582;13.408;2023-02-15T16:32:06;36.15;;;18.60;;
22138;SDS011;25815;52.582;13.408;2023-02-15T16:34:49;34.45;;;17.15;;
22138;SDS011;25815;52.582;13.408;2023-02-15T16:37:16;31.60;;;17.58;;
22138;SDS011;25815;52.582;13.408;2023-02-15T16:39:43;36.53;;;17.27;;
22138;SDS011;25815;52.582;13.408;2023-02-15T16:42:11;31.55;;;17.63;;
22138;SDS011;25815;52.582;13.408;2023-02-15T16:44:37;29.25;;;17.55;;
22138;SDS011;25815;52.582;13.408;2023-02-15T16:47:03;31.80;;;17.02;;
22138;SDS011;25815;52.582;13.408;2023-02-15T16:49:29;39.60;;;22.77;;